sensor_id;sensor_type;location;lat;lon;timestamp;temperature;humidity
71839;SHT31;59687;37.520;15.068;2023-01-13T00:00:15;12.64;79.22
71839;SHT31;59687;37.520;15.068;2023-01-13T00:02:42;12.64;79.26
71839;SHT31;59687;37.520;15.068;2023-01-13T00:05:09;12.76;78.41
71839;SHT31;59687;37.520;15.068;2023-01-13T00:07:38;12.79;78.63
71839;SHT31;59687;37.520;15.068;2023-01-13T00:10:10;12.87;78.05
71839;SHT31;59687;37.520;15.068;2023-01-13T00:12:40;12.85;77.84
71839;SHT31;59687;37.520;15.068;2023-01-13T00:15:08;12.84;77.54
71839;SHT31;59687;37.520;15.068;2023-01-13T00:17:37;12.84;76.94
71839;SHT31;59687;37.520;15.068;2023-01-13T00:20:05;12.79;77.46
71839;SHT31;59687;37.520;15.068;2023-01-13T00:22:33;12.85;77.09
71839;SHT31;59687;37.520;15.068;2023-01-13T00:25:01;12.90;77.04
71839;SHT31;59687;37.520;15.068;2023-01-13T00:27:30;12.74;77.17
71839;SHT31;59687;37.520;15.068;2023-01-13T00:29:57;12.76;77.04
71839;SHT31;59687;37.520;15.068;2023-01-13T00:32:24;12.73;76.99
71839;SHT31;59687;37.520;15.068;2023-01-13T00:34:51;12.74;76.96
71839;SHT31;59687;37.520;15.068;2023-01-13T00:37:19;12.94;76.37
71839;SHT31;59687;37.520;15.068;2023-01-13T00:39:47;12.83;76.33
71839;SHT31;59687;37.520;15.068;2023-01-13T00:42:13;12.76;76.57
71839;SHT31;59687;37.520;15.068;2023-01-13T00:45:00;12.73;76.63
71839;SHT31;59687;37.520;15.068;2023-01-13T00:47:27;12.83;75.98
71839;SHT31;59687;37.520;15.068;2023-01-13T00:49:54;12.80;76.20
71839;SHT31;59687;37.520;15.068;2023-01-13T00:52:21;12.92;75.81
71839;SHT31;59687;37.520;15.068;2023-01-13T00:54:48;12.80;76.21
71839;SHT31;59687;37.520;15.068;2023-01-13T00:57:16;12.73;76.53
71839;SHT31;59687;37.520;15.068;2023-01-13T00:59:44;12.92;76.04
71839;SHT31;59687;37.520;15.068;2023-01-13T01:02:13;13.05;75.53
71839;SHT31;59687;37.520;15.068;2023-01-13T01:04:39;12.87;76.20
71839;SHT31;59687;37.520;15.068;2023-01-13T01:07:07;13.19;75.30
71839;SHT31;59687;37.520;15.068;2023-01-13T01:09:36;13.25;75.09
71839;SHT31;59687;37.520;15.068;2023-01-13T01:12:05;13.12;75.22
71839;SHT31;59687;37.520;15.068;2023-01-13T01:14:32;13.05;75.79
71839;SHT31;59687;37.520;15.068;2023-01-13T01:16:59;13.08;75.69
71839;SHT31;59687;37.520;15.068;2023-01-13T01:19:26;12.83;76.27
71839;SHT31;59687;37.520;15.068;2023-01-13T01:21:52;12.80;76.08
71839;SHT31;59687;37.520;15.068;2023-01-13T01:24:20;12.72;76.49
71839;SHT31;59687;37.520;15.068;2023-01-13T01:26:47;12.70;76.66
71839;SHT31;59687;37.520;15.068;2023-01-13T01:29:15;12.77;76.52
71839;SHT31;59687;37.520;15.068;2023-01-13T01:31:42;12.72;76.47
71839;SHT31;59687;37.520;15.068;2023-01-13T01:34:09;12.73;76.39
71839;SHT31;59687;37.520;15.068;2023-01-13T01:36:38;12.73;76.48
71839;SHT31;59687;37.520;15.068;2023-01-13T01:39:05;12.79;75.86
71839;SHT31;59687;37.520;15.068;2023-01-13T01:41:33;13.07;75.29
71839;SHT31;59687;37.520;15.068;2023-01-13T01:44:04;12.84;75.61
71839;SHT31;59687;37.520;15.068;2023-01-13T01:46:38;12.90;75.41
71839;SHT31;59687;37.520;15.068;2023-01-13T01:49:25;12.79;75.85
71839;SHT31;59687;37.520;15.068;2023-01-13T01:52:05;12.72;76.26
71839;SHT31;59687;37.520;15.068;2023-01-13T01:57:17;12.70;76.37
71839;SHT31;59687;37.520;15.068;2023-01-13T01:59:44;13.04;75.32
71839;SHT31;59687;37.520;15.068;2023-01-13T02:02:11;12.87;75.71
71839;SHT31;59687;37.520;15.068;2023-01-13T02:04:42;13.02;75.24
71839;SHT31;59687;37.520;15.068;2023-01-13T02:07:27;13.26;74.74
71839;SHT31;59687;37.520;15.068;2023-01-13T02:09:58;13.30;74.47
71839;SHT31;59687;37.520;15.068;2023-01-13T02:12:28;13.16;74.85
71839;SHT31;59687;37.520;15.068;2023-01-13T02:15:20;13.14;75.23
71839;SHT31;59687;37.520;15.068;2023-01-13T02:32:25;12.60;76.60
71839;SHT31;59687;37.520;15.068;2023-01-13T02:37:36;12.49;77.37
71839;SHT31;59687;37.520;15.068;2023-01-13T02:42:41;12.73;75.88
71839;SHT31;59687;37.520;15.068;2023-01-13T02:45:31;12.40;77.14
71839;SHT31;59687;37.520;15.068;2023-01-13T02:48:00;12.46;77.35
71839;SHT31;59687;37.520;15.068;2023-01-13T02:50:34;12.47;76.97
71839;SHT31;59687;37.520;15.068;2023-01-13T02:53:21;12.50;77.07
71839;SHT31;59687;37.520;15.068;2023-01-13T02:55:52;12.49;78.11
71839;SHT31;59687;37.520;15.068;2023-01-13T02:58:24;12.45;78.73
71839;SHT31;59687;37.520;15.068;2023-01-13T03:00:52;12.32;79.43
71839;SHT31;59687;37.520;15.068;2023-01-13T03:03:19;12.20;79.85
71839;SHT31;59687;37.520;15.068;2023-01-13T03:05:48;12.14;80.62
71839;SHT31;59687;37.520;15.068;2023-01-13T03:11:11;11.77;82.68
71839;SHT31;59687;37.520;15.068;2023-01-13T03:24:35;11.53;82.94
71839;SHT31;59687;37.520;15.068;2023-01-13T03:27:19;11.73;82.00
71839;SHT31;59687;37.520;15.068;2023-01-13T03:32:43;11.52;82.60
71839;SHT31;59687;37.520;15.068;2023-01-13T03:35:31;11.74;81.98
71839;SHT31;59687;37.520;15.068;2023-01-13T03:38:06;11.70;82.31
71839;SHT31;59687;37.520;15.068;2023-01-13T03:40:40;11.58;82.56
71839;SHT31;59687;37.520;15.068;2023-01-13T03:43:12;11.73;82.31
71839;SHT31;59687;37.520;15.068;2023-01-13T03:46:06;11.83;82.07
71839;SHT31;59687;37.520;15.068;2023-01-13T03:48:35;11.94;81.49
71839;SHT31;59687;37.520;15.068;2023-01-13T03:51:05;11.71;82.25
71839;SHT31;59687;37.520;15.068;2023-01-13T03:53:37;11.70;82.52
71839;SHT31;59687;37.520;15.068;2023-01-13T03:56:13;11.76;82.51
71839;SHT31;59687;37.520;15.068;2023-01-13T03:58:43;11.55;83.34
71839;SHT31;59687;37.520;15.068;2023-01-13T04:01:17;11.59;83.45
71839;SHT31;59687;37.520;15.068;2023-01-13T04:06:39;11.52;83.57
71839;SHT31;59687;37.520;15.068;2023-01-13T04:12:02;11.73;83.25
71839;SHT31;59687;37.520;15.068;2023-01-13T04:14:31;11.58;83.49
71839;SHT31;59687;37.520;15.068;2023-01-13T04:16:58;11.49;84.16
71839;SHT31;59687;37.520;15.068;2023-01-13T04:19:26;11.50;83.93
71839;SHT31;59687;37.520;15.068;2023-01-13T04:21:53;11.55;83.89
71839;SHT31;59687;37.520;15.068;2023-01-13T04:24:20;11.65;83.83
71839;SHT31;59687;37.520;15.068;2023-01-13T04:26:46;11.80;83.43
71839;SHT31;59687;37.520;15.068;2023-01-13T04:29:13;11.83;82.96
71839;SHT31;59687;37.520;15.068;2023-01-13T04:31:41;12.10;82.27
71839;SHT31;59687;37.520;15.068;2023-01-13T04:34:11;12.05;82.24
71839;SHT31;59687;37.520;15.068;2023-01-13T04:36:38;11.97;82.43
71839;SHT31;59687;37.520;15.068;2023-01-13T04:39:05;11.94;82.53
71839;SHT31;59687;37.520;15.068;2023-01-13T04:41:32;11.77;83.18
71839;SHT31;59687;37.520;15.068;2023-01-13T04:44:19;11.99;82.41
71839;SHT31;59687;37.520;15.068;2023-01-13T04:46:46;12.12;81.61
71839;SHT31;59687;37.520;15.068;2023-01-13T04:49:13;12.05;81.86
71839;SHT31;59687;37.520;15.068;2023-01-13T04:51:40;11.99;81.97
71839;SHT31;59687;37.520;15.068;2023-01-13T04:54:09;11.93;82.24
71839;SHT31;59687;37.520;15.068;2023-01-13T04:56:36;11.90;82.17
71839;SHT31;59687;37.520;15.068;2023-01-13T04:59:03;11.66;82.71
71839;SHT31;59687;37.520;15.068;2023-01-13T05:01:30;11.49;83.27
71839;SHT31;59687;37.520;15.068;2023-01-13T05:03:57;11.28;83.61
71839;SHT31;59687;37.520;15.068;2023-01-13T05:06:23;11.17;84.11
71839;SHT31;59687;37.520;15.068;2023-01-13T05:08:50;11.01;84.70
71839;SHT31;59687;37.520;15.068;2023-01-13T05:11:17;10.85;85.52
71839;SHT31;59687;37.520;15.068;2023-01-13T05:14:02;10.84;85.68
71839;SHT31;59687;37.520;15.068;2023-01-13T05:16:50;11.06;84.91
71839;SHT31;59687;37.520;15.068;2023-01-13T05:19:28;10.79;85.63
71839;SHT31;59687;37.520;15.068;2023-01-13T05:21:56;10.73;85.82
71839;SHT31;59687;37.520;15.068;2023-01-13T05:24:42;10.73;85.29
71839;SHT31;59687;37.520;15.068;2023-01-13T05:27:28;10.87;85.13
71839;SHT31;59687;37.520;15.068;2023-01-13T05:29:56;10.97;84.39
71839;SHT31;59687;37.520;15.068;2023-01-13T05:32:23;10.64;85.48
71839;SHT31;59687;37.520;15.068;2023-01-13T05:34:50;10.52;86.47
71839;SHT31;59687;37.520;15.068;2023-01-13T05:37:17;10.42;86.63
71839;SHT31;59687;37.520;15.068;2023-01-13T05:39:44;10.35;86.81
71839;SHT31;59687;37.520;15.068;2023-01-13T05:42:29;10.24;87.69
71839;SHT31;59687;37.520;15.068;2023-01-13T05:45:15;10.22;87.60
71839;SHT31;59687;37.520;15.068;2023-01-13T05:47:42;10.42;86.85
71839;SHT31;59687;37.520;15.068;2023-01-13T05:50:09;10.27;87.53
71839;SHT31;59687;37.520;15.068;2023-01-13T05:52:36;10.18;87.95
71839;SHT31;59687;37.520;15.068;2023-01-13T05:55:03;10.14;88.07
71839;SHT31;59687;37.520;15.068;2023-01-13T05:57:30;10.44;86.91
71839;SHT31;59687;37.520;15.068;2023-01-13T05:59:57;10.34;86.90
71839;SHT31;59687;37.520;15.068;2023-01-13T06:02:24;10.22;87.20
71839;SHT31;59687;37.520;15.068;2023-01-13T06:04:52;10.45;86.55
71839;SHT31;59687;37.520;15.068;2023-01-13T06:07:19;10.18;87.17
71839;SHT31;59687;37.520;15.068;2023-01-13T06:09:46;10.07;88.15
71839;SHT31;59687;37.520;15.068;2023-01-13T06:12:13;10.05;88.04
71839;SHT31;59687;37.520;15.068;2023-01-13T06:14:40;9.97;88.47
71839;SHT31;59687;37.520;15.068;2023-01-13T06:17:11;10.44;86.80
71839;SHT31;59687;37.520;15.068;2023-01-13T06:19:39;10.25;87.48
71839;SHT31;59687;37.520;15.068;2023-01-13T06:22:18;10.59;87.21
71839;SHT31;59687;37.520;15.068;2023-01-13T06:24:50;11.00;84.87
71839;SHT31;59687;37.520;15.068;2023-01-13T06:27:20;11.03;85.09
71839;SHT31;59687;37.520;15.068;2023-01-13T06:29:49;11.35;84.20
71839;SHT31;59687;37.520;15.068;2023-01-13T06:32:23;11.69;82.09
71839;SHT31;59687;37.520;15.068;2023-01-13T06:34:55;11.94;81.57
71839;SHT31;59687;37.520;15.068;2023-01-13T06:37:27;12.35;79.83
71839;SHT31;59687;37.520;15.068;2023-01-13T06:39:56;12.64;78.90
71839;SHT31;59687;37.520;15.068;2023-01-13T06:42:26;13.08;77.15
71839;SHT31;59687;37.520;15.068;2023-01-13T06:45:13;13.54;75.02
71839;SHT31;59687;37.520;15.068;2023-01-13T06:47:46;13.73;73.42
71839;SHT31;59687;37.520;15.068;2023-01-13T06:50:13;13.57;73.65
71839;SHT31;59687;37.520;15.068;2023-01-13T06:52:40;13.30;73.59
71839;SHT31;59687;37.520;15.068;2023-01-13T06:55:07;13.02;74.07
71839;SHT31;59687;37.520;15.068;2023-01-13T06:57:34;12.76;74.55
71839;SHT31;59687;37.520;15.068;2023-01-13T07:00:03;12.55;75.23
71839;SHT31;59687;37.520;15.068;2023-01-13T07:02:30;12.56;75.89
71839;SHT31;59687;37.520;15.068;2023-01-13T07:05:00;13.20;74.52
71839;SHT31;59687;37.520;15.068;2023-01-13T07:07:27;14.02;72.22
71839;SHT31;59687;37.520;15.068;2023-01-13T07:09:54;14.88;68.74
71839;SHT31;59687;37.520;15.068;2023-01-13T07:12:22;15.70;66.06
71839;SHT31;59687;37.520;15.068;2023-01-13T07:14:51;16.57;63.51
71839;SHT31;59687;37.520;15.068;2023-01-13T07:17:37;17.47;60.47
71839;SHT31;59687;37.520;15.068;2023-01-13T07:20:04;17.98;58.04
71839;SHT31;59687;37.520;15.068;2023-01-13T07:22:31;18.57;56.23
71839;SHT31;59687;37.520;15.068;2023-01-13T07:24:58;19.06;54.72
71839;SHT31;59687;37.520;15.068;2023-01-13T07:27:31;19.53;53.11
71839;SHT31;59687;37.520;15.068;2023-01-13T07:29:58;19.92;52.07
71839;SHT31;59687;37.520;15.068;2023-01-13T07:32:25;20.33;51.21
71839;SHT31;59687;37.520;15.068;2023-01-13T07:34:52;20.59;49.60
71839;SHT31;59687;37.520;15.068;2023-01-13T07:37:19;20.67;49.11
71839;SHT31;59687;37.520;15.068;2023-01-13T07:39:46;20.67;49.35
71839;SHT31;59687;37.520;15.068;2023-01-13T07:42:13;20.71;48.62
71839;SHT31;59687;37.520;15.068;2023-01-13T07:44:59;21.28;48.47
71839;SHT31;59687;37.520;15.068;2023-01-13T07:47:29;21.21;47.93
71839;SHT31;59687;37.520;15.068;2023-01-13T07:49:56;20.44;49.79
71839;SHT31;59687;37.520;15.068;2023-01-13T07:52:25;20.30;50.19
71839;SHT31;59687;37.520;15.068;2023-01-13T07:54:52;19.87;50.98
71839;SHT31;59687;37.520;15.068;2023-01-13T07:57:19;19.96;50.92
71839;SHT31;59687;37.520;15.068;2023-01-13T07:59:48;20.33;50.72
71839;SHT31;59687;37.520;15.068;2023-01-13T08:02:15;20.61;49.95
71839;SHT31;59687;37.520;15.068;2023-01-13T08:04:42;21.34;49.44
71839;SHT31;59687;37.520;15.068;2023-01-13T08:07:09;21.73;47.76
71839;SHT31;59687;37.520;15.068;2023-01-13T08:09:37;22.40;46.65
71839;SHT31;59687;37.520;15.068;2023-01-13T08:12:03;22.48;45.77
71839;SHT31;59687;37.520;15.068;2023-01-13T08:14:49;22.99;44.65
71839;SHT31;59687;37.520;15.068;2023-01-13T08:17:17;23.06;44.04
71839;SHT31;59687;37.520;15.068;2023-01-13T08:19:46;22.99;43.92
71839;SHT31;59687;37.520;15.068;2023-01-13T08:22:16;23.18;44.03
71839;SHT31;59687;37.520;15.068;2023-01-13T08:24:46;23.56;42.66
71839;SHT31;59687;37.520;15.068;2023-01-13T08:27:13;23.84;43.09
71839;SHT31;59687;37.520;15.068;2023-01-13T08:29:41;24.36;41.23
71839;SHT31;59687;37.520;15.068;2023-01-13T08:32:11;24.20;40.89
71839;SHT31;59687;37.520;15.068;2023-01-13T08:34:38;24.09;41.20
71839;SHT31;59687;37.520;15.068;2023-01-13T08:37:05;24.89;40.37
71839;SHT31;59687;37.520;15.068;2023-01-13T08:39:35;25.15;39.43
71839;SHT31;59687;37.520;15.068;2023-01-13T08:42:03;25.08;39.14
71839;SHT31;59687;37.520;15.068;2023-01-13T08:44:30;23.32;41.79
71839;SHT31;59687;37.520;15.068;2023-01-13T08:46:58;23.28;41.68
71839;SHT31;59687;37.520;15.068;2023-01-13T08:49:25;21.73;44.09
71839;SHT31;59687;37.520;15.068;2023-01-13T08:51:52;21.73;44.70
71839;SHT31;59687;37.520;15.068;2023-01-13T08:54:19;21.07;43.65
71839;SHT31;59687;37.520;15.068;2023-01-13T08:56:46;21.59;40.56
71839;SHT31;59687;37.520;15.068;2023-01-13T08:59:15;22.51;39.21
71839;SHT31;59687;37.520;15.068;2023-01-13T09:01:43;23.59;36.27
71839;SHT31;59687;37.520;15.068;2023-01-13T09:04:19;24.47;35.42
71839;SHT31;59687;37.520;15.068;2023-01-13T09:06:48;24.48;32.36
71839;SHT31;59687;37.520;15.068;2023-01-13T09:09:15;24.58;33.11
71839;SHT31;59687;37.520;15.068;2023-01-13T09:11:44;25.50;32.39
71839;SHT31;59687;37.520;15.068;2023-01-13T09:14:32;25.30;39.40
71839;SHT31;59687;37.520;15.068;2023-01-13T09:16:59;25.42;39.31
71839;SHT31;59687;37.520;15.068;2023-01-13T09:19:27;23.97;40.79
71839;SHT31;59687;37.520;15.068;2023-01-13T09:21:55;24.39;40.09
71839;SHT31;59687;37.520;15.068;2023-01-13T09:24:25;24.47;40.43
71839;SHT31;59687;37.520;15.068;2023-01-13T09:26:55;22.52;43.64
71839;SHT31;59687;37.520;15.068;2023-01-13T09:29:24;21.97;45.60
71839;SHT31;59687;37.520;15.068;2023-01-13T09:31:51;21.30;46.63
71839;SHT31;59687;37.520;15.068;2023-01-13T09:34:19;21.10;48.04
71839;SHT31;59687;37.520;15.068;2023-01-13T09:37:06;21.26;48.33
71839;SHT31;59687;37.520;15.068;2023-01-13T09:39:34;22.21;45.80
71839;SHT31;59687;37.520;15.068;2023-01-13T09:42:09;23.49;43.02
71839;SHT31;59687;37.520;15.068;2023-01-13T09:47:43;24.49;40.64
71839;SHT31;59687;37.520;15.068;2023-01-13T09:50:40;23.83;40.72
71839;SHT31;59687;37.520;15.068;2023-01-13T09:53:20;24.00;40.31
71839;SHT31;59687;37.520;15.068;2023-01-13T09:55:48;22.25;42.79
71839;SHT31;59687;37.520;15.068;2023-01-13T09:58:16;22.04;43.56
71839;SHT31;59687;37.520;15.068;2023-01-13T10:03:34;21.62;44.93
71839;SHT31;59687;37.520;15.068;2023-01-13T10:06:34;22.21;43.58
71839;SHT31;59687;37.520;15.068;2023-01-13T10:09:05;21.65;43.50
71839;SHT31;59687;37.520;15.068;2023-01-13T10:11:36;21.17;43.82
71839;SHT31;59687;37.520;15.068;2023-01-13T10:14:37;21.42;43.92
71839;SHT31;59687;37.520;15.068;2023-01-13T10:17:41;22.59;42.23
71839;SHT31;59687;37.520;15.068;2023-01-13T10:28:50;25.08;35.91
71839;SHT31;59687;37.520;15.068;2023-01-13T10:31:19;25.69;34.51
71839;SHT31;59687;37.520;15.068;2023-01-13T10:33:47;27.52;32.22
71839;SHT31;59687;37.520;15.068;2023-01-13T10:36:17;29.28;29.28
71839;SHT31;59687;37.520;15.068;2023-01-13T10:38:49;30.07;27.72
71839;SHT31;59687;37.520;15.068;2023-01-13T10:43:58;29.52;30.08
71839;SHT31;59687;37.520;15.068;2023-01-13T10:46:27;31.25;28.06
71839;SHT31;59687;37.520;15.068;2023-01-13T10:48:56;28.56;30.48
71839;SHT31;59687;37.520;15.068;2023-01-13T10:51:26;28.53;30.69
71839;SHT31;59687;37.520;15.068;2023-01-13T10:54:04;30.10;29.14
71839;SHT31;59687;37.520;15.068;2023-01-13T10:56:48;33.04;25.75
71839;SHT31;59687;37.520;15.068;2023-01-13T10:59:27;32.28;26.71
71839;SHT31;59687;37.520;15.068;2023-01-13T11:07:39;28.89;29.90
71839;SHT31;59687;37.520;15.068;2023-01-13T11:10:27;29.67;29.01
71839;SHT31;59687;37.520;15.068;2023-01-13T11:13:17;29.69;29.53
71839;SHT31;59687;37.520;15.068;2023-01-13T11:20:57;30.33;28.83
71839;SHT31;59687;37.520;15.068;2023-01-13T11:23:33;29.81;28.93
71839;SHT31;59687;37.520;15.068;2023-01-13T11:26:11;31.05;27.55
71839;SHT31;59687;37.520;15.068;2023-01-13T11:28:55;29.58;27.88
71839;SHT31;59687;37.520;15.068;2023-01-13T11:31:30;27.70;28.60
71839;SHT31;59687;37.520;15.068;2023-01-13T11:34:04;26.96;30.35
71839;SHT31;59687;37.520;15.068;2023-01-13T11:36:46;29.96;27.28
71839;SHT31;59687;37.520;15.068;2023-01-13T11:47:45;30.69;26.95
71839;SHT31;59687;37.520;15.068;2023-01-13T11:53:08;36.90;20.97
71839;SHT31;59687;37.520;15.068;2023-01-13T12:16:04;35.73;21.13
71839;SHT31;59687;37.520;15.068;2023-01-13T12:21:28;34.45;21.68
71839;SHT31;59687;37.520;15.068;2023-01-13T12:24:19;33.46;23.00
71839;SHT31;59687;37.520;15.068;2023-01-13T12:26:58;32.83;23.29
71839;SHT31;59687;37.520;15.068;2023-01-13T12:29:34;34.28;22.05
71839;SHT31;59687;37.520;15.068;2023-01-13T12:32:09;34.51;22.09
71839;SHT31;59687;37.520;15.068;2023-01-13T12:35:16;32.02;24.12
71839;SHT31;59687;37.520;15.068;2023-01-13T12:45:47;29.16;27.43
71839;SHT31;59687;37.520;15.068;2023-01-13T12:51:35;34.12;22.58
71839;SHT31;59687;37.520;15.068;2023-01-13T12:57:20;29.88;26.89
71839;SHT31;59687;37.520;15.068;2023-01-13T13:02:28;30.00;26.25
71839;SHT31;59687;37.520;15.068;2023-01-13T13:04:58;29.86;26.87
71839;SHT31;59687;37.520;15.068;2023-01-13T13:10:15;29.12;27.60
71839;SHT31;59687;37.520;15.068;2023-01-13T13:15:30;27.49;29.26
71839;SHT31;59687;37.520;15.068;2023-01-13T13:21:01;23.62;34.48
71839;SHT31;59687;37.520;15.068;2023-01-13T13:35:05;23.23;34.80
71839;SHT31;59687;37.520;15.068;2023-01-13T13:41:20;22.49;35.68
71839;SHT31;59687;37.520;15.068;2023-01-13T13:44:19;21.61;37.51
71839;SHT31;59687;37.520;15.068;2023-01-13T13:47:07;21.49;37.95
71839;SHT31;59687;37.520;15.068;2023-01-13T13:49:43;21.49;38.01
71839;SHT31;59687;37.520;15.068;2023-01-13T13:54:53;21.88;36.97
71839;SHT31;59687;37.520;15.068;2023-01-13T13:57:36;21.93;37.16
71839;SHT31;59687;37.520;15.068;2023-01-13T14:00:15;22.85;35.43
71839;SHT31;59687;37.520;15.068;2023-01-13T14:02:59;23.66;34.14
71839;SHT31;59687;37.520;15.068;2023-01-13T14:05:32;23.69;33.65
71839;SHT31;59687;37.520;15.068;2023-01-13T14:08:13;22.61;35.06
71839;SHT31;59687;37.520;15.068;2023-01-13T14:10:43;21.96;36.09
71839;SHT31;59687;37.520;15.068;2023-01-13T14:13:24;22.10;35.75
71839;SHT31;59687;37.520;15.068;2023-01-13T14:16:00;22.27;35.78
71839;SHT31;59687;37.520;15.068;2023-01-13T14:18:31;22.24;35.27
71839;SHT31;59687;37.520;15.068;2023-01-13T14:23:55;22.18;35.38
71839;SHT31;59687;37.520;15.068;2023-01-13T14:26:29;22.11;35.33
71839;SHT31;59687;37.520;15.068;2023-01-13T14:28:58;22.00;35.66
71839;SHT31;59687;37.520;15.068;2023-01-13T14:31:25;22.45;35.43
71839;SHT31;59687;37.520;15.068;2023-01-13T14:33:59;22.72;39.17
71839;SHT31;59687;37.520;15.068;2023-01-13T14:36:37;22.95;39.75
71839;SHT31;59687;37.520;15.068;2023-01-13T14:47:25;22.37;42.68
71839;SHT31;59687;37.520;15.068;2023-01-13T14:50:15;22.33;42.99
71839;SHT31;59687;37.520;15.068;2023-01-13T14:52:48;22.30;42.81
71839;SHT31;59687;37.520;15.068;2023-01-13T15:01:28;21.62;44.54
71839;SHT31;59687;37.520;15.068;2023-01-13T15:04:30;21.30;44.45
71839;SHT31;59687;37.520;15.068;2023-01-13T15:06:58;21.06;45.23
71839;SHT31;59687;37.520;15.068;2023-01-13T15:09:28;21.00;45.75
71839;SHT31;59687;37.520;15.068;2023-01-13T15:11:57;20.09;48.30
71839;SHT31;59687;37.520;15.068;2023-01-13T15:14:28;20.16;48.20
71839;SHT31;59687;37.520;15.068;2023-01-13T15:17:00;19.81;49.82
71839;SHT31;59687;37.520;15.068;2023-01-13T15:19:30;19.27;52.25
71839;SHT31;59687;37.520;15.068;2023-01-13T15:22:01;18.33;54.82
71839;SHT31;59687;37.520;15.068;2023-01-13T15:24:37;18.03;55.60
71839;SHT31;59687;37.520;15.068;2023-01-13T15:27:18;17.57;57.02
71839;SHT31;59687;37.520;15.068;2023-01-13T15:29:47;16.86;58.54
71839;SHT31;59687;37.520;15.068;2023-01-13T15:32:18;16.44;60.23
71839;SHT31;59687;37.520;15.068;2023-01-13T15:34:47;16.29;60.94
71839;SHT31;59687;37.520;15.068;2023-01-13T15:37:15;16.08;61.96
71839;SHT31;59687;37.520;15.068;2023-01-13T15:39:44;15.71;63.37
71839;SHT31;59687;37.520;15.068;2023-01-13T15:42:12;15.51;64.24
71839;SHT31;59687;37.520;15.068;2023-01-13T15:45:03;15.39;64.83
71839;SHT31;59687;37.520;15.068;2023-01-13T15:47:49;15.22;65.99
71839;SHT31;59687;37.520;15.068;2023-01-13T15:50:19;15.12;66.30
71839;SHT31;59687;37.520;15.068;2023-01-13T15:52:51;14.95;66.75
71839;SHT31;59687;37.520;15.068;2023-01-13T15:55:19;14.87;67.81
71839;SHT31;59687;37.520;15.068;2023-01-13T15:57:53;14.78;69.01
71839;SHT31;59687;37.520;15.068;2023-01-13T16:00:23;14.67;69.72
71839;SHT31;59687;37.520;15.068;2023-01-13T16:02:51;14.57;69.79
71839;SHT31;59687;37.520;15.068;2023-01-13T16:05:18;14.50;69.89
71839;SHT31;59687;37.520;15.068;2023-01-13T16:07:46;14.44;69.69
71839;SHT31;59687;37.520;15.068;2023-01-13T16:10:22;14.39;70.23
71839;SHT31;59687;37.520;15.068;2023-01-13T16:12:50;14.34;70.42
71839;SHT31;59687;37.520;15.068;2023-01-13T16:15:18;14.30;71.05
71839;SHT31;59687;37.520;15.068;2023-01-13T16:17:55;14.23;71.27
71839;SHT31;59687;37.520;15.068;2023-01-13T16:20:28;14.23;71.61
71839;SHT31;59687;37.520;15.068;2023-01-13T16:22:55;14.25;71.94
71839;SHT31;59687;37.520;15.068;2023-01-13T16:25:25;14.19;72.25
71839;SHT31;59687;37.520;15.068;2023-01-13T16:27:53;14.19;72.50
71839;SHT31;59687;37.520;15.068;2023-01-13T16:30:24;14.16;72.45
71839;SHT31;59687;37.520;15.068;2023-01-13T16:32:54;14.15;72.97
71839;SHT31;59687;37.520;15.068;2023-01-13T16:35:22;14.11;73.13
71839;SHT31;59687;37.520;15.068;2023-01-13T16:37:49;14.12;73.13
71839;SHT31;59687;37.520;15.068;2023-01-13T16:40:31;14.08;73.38
71839;SHT31;59687;37.520;15.068;2023-01-13T16:43:03;14.09;73.36
71839;SHT31;59687;37.520;15.068;2023-01-13T16:45:33;14.06;73.05
71839;SHT31;59687;37.520;15.068;2023-01-13T16:48:03;14.04;73.44
71839;SHT31;59687;37.520;15.068;2023-01-13T16:50:41;14.02;72.91
71839;SHT31;59687;37.520;15.068;2023-01-13T16:53:10;14.02;72.31
71839;SHT31;59687;37.520;15.068;2023-01-13T16:55:38;14.06;72.14
71839;SHT31;59687;37.520;15.068;2023-01-13T16:58:11;14.00;71.97
71839;SHT31;59687;37.520;15.068;2023-01-13T17:00:41;13.98;71.27
71839;SHT31;59687;37.520;15.068;2023-01-13T17:03:15;13.97;71.12
71839;SHT31;59687;37.520;15.068;2023-01-13T17:05:44;13.94;71.03
71839;SHT31;59687;37.520;15.068;2023-01-13T17:08:16;13.92;71.50
71839;SHT31;59687;37.520;15.068;2023-01-13T17:10:45;13.92;71.44
71839;SHT31;59687;37.520;15.068;2023-01-13T17:13:13;13.91;71.36
71839;SHT31;59687;37.520;15.068;2023-01-13T17:15:44;13.98;71.05
71839;SHT31;59687;37.520;15.068;2023-01-13T17:18:11;13.94;71.46
71839;SHT31;59687;37.520;15.068;2023-01-13T17:20:44;13.94;71.35
71839;SHT31;59687;37.520;15.068;2023-01-13T17:23:11;13.88;72.35
71839;SHT31;59687;37.520;15.068;2023-01-13T17:25:38;13.84;72.81
71839;SHT31;59687;37.520;15.068;2023-01-13T17:28:05;13.82;73.35
71839;SHT31;59687;37.520;15.068;2023-01-13T17:30:36;13.81;73.19
71839;SHT31;59687;37.520;15.068;2023-01-13T17:33:05;13.74;73.57
71839;SHT31;59687;37.520;15.068;2023-01-13T17:35:32;13.74;73.99
71839;SHT31;59687;37.520;15.068;2023-01-13T17:37:59;13.71;74.04
71839;SHT31;59687;37.520;15.068;2023-01-13T17:40:27;13.69;74.05
71839;SHT31;59687;37.520;15.068;2023-01-13T17:42:54;13.67;74.05
71839;SHT31;59687;37.520;15.068;2023-01-13T17:45:23;13.66;74.30
71839;SHT31;59687;37.520;15.068;2023-01-13T17:48:02;13.61;74.58
71839;SHT31;59687;37.520;15.068;2023-01-13T17:50:32;13.60;74.42
71839;SHT31;59687;37.520;15.068;2023-01-13T17:53:00;13.59;74.26
71839;SHT31;59687;37.520;15.068;2023-01-13T17:55:30;13.54;74.21
71839;SHT31;59687;37.520;15.068;2023-01-13T17:57:57;13.56;74.09
71839;SHT31;59687;37.520;15.068;2023-01-13T18:00:29;13.54;74.19
71839;SHT31;59687;37.520;15.068;2023-01-13T18:02:56;13.54;74.29
71839;SHT31;59687;37.520;15.068;2023-01-13T18:05:23;13.52;74.19
71839;SHT31;59687;37.520;15.068;2023-01-13T18:07:50;13.49;74.36
71839;SHT31;59687;37.520;15.068;2023-01-13T18:10:18;13.46;74.39
71839;SHT31;59687;37.520;15.068;2023-01-13T18:12:45;13.46;74.60
71839;SHT31;59687;37.520;15.068;2023-01-13T18:15:15;13.44;74.64
71839;SHT31;59687;37.520;15.068;2023-01-13T18:17:49;13.40;74.49
71839;SHT31;59687;37.520;15.068;2023-01-13T18:20:17;13.38;74.61
71839;SHT31;59687;37.520;15.068;2023-01-13T18:23:03;13.36;74.91
71839;SHT31;59687;37.520;15.068;2023-01-13T18:25:50;13.30;75.31
71839;SHT31;59687;37.520;15.068;2023-01-13T18:28:36;13.30;75.23
71839;SHT31;59687;37.520;15.068;2023-01-13T18:31:04;13.26;75.21